sensor_id;sensor_type;location;lat;lon;timestamp;temperature;humidity
6948;DHT22;3513;47.664;9.162;2023-04-08T00:01:13;8.20;98.00
6948;DHT22;3513;47.664;9.162;2023-04-08T00:03:39;7.50;98.10
6948;DHT22;3513;47.664;9.162;2023-04-08T00:06:05;8.60;98.60
6948;DHT22;3513;47.664;9.162;2023-04-08T00:08:31;7.50;98.20
6948;DHT22;3513;47.664;9.162;2023-04-08T00:10:56;7.50;98.20
6948;DHT22;3513;47.664;9.162;2023-04-08T00:13:22;7.50;98.00
6948;DHT22;3513;47.664;9.162;2023-04-08T00:15:48;7.50;98.20
6948;DHT22;3513;47.664;9.162;2023-04-08T00:18:14;7.40;98.40
6948;DHT22;3513;47.664;9.162;2023-04-08T00:20:42;7.40;98.50
6948;DHT22;3513;47.664;9.162;2023-04-08T00:23:07;7.40;98.60
6948;DHT22;3513;47.664;9.162;2023-04-08T00:25:33;7.30;98.60
6948;DHT22;3513;47.664;9.162;2023-04-08T00:27:59;7.30;98.80
6948;DHT22;3513;47.664;9.162;2023-04-08T00:30:24;7.40;98.90
6948;DHT22;3513;47.664;9.162;2023-04-08T00:32:51;7.40;98.90
6948;DHT22;3513;47.664;9.162;2023-04-08T00:35:17;7.30;98.90
6948;DHT22;3513;47.664;9.162;2023-04-08T00:37:42;7.30;99.10
6948;DHT22;3513;47.664;9.162;2023-04-08T00:40:08;7.40;99.00
6948;DHT22;3513;47.664;9.162;2023-04-08T00:42:34;7.30;98.90
6948;DHT22;3513;47.664;9.162;2023-04-08T00:45:00;7.30;98.90
6948;DHT22;3513;47.664;9.162;2023-04-08T00:47:26;8.40;99.50
6948;DHT22;3513;47.664;9.162;2023-04-08T00:49:51;7.30;99.00
6948;DHT22;3513;47.664;9.162;2023-04-08T00:52:17;7.20;98.80
6948;DHT22;3513;47.664;9.162;2023-04-08T00:54:42;7.20;98.90
6948;DHT22;3513;47.664;9.162;2023-04-08T00:57:08;7.40;98.80
6948;DHT22;3513;47.664;9.162;2023-04-08T00:59:34;7.30;98.60
6948;DHT22;3513;47.664;9.162;2023-04-08T01:05:06;7.30;99.30
6948;DHT22;3513;47.664;9.162;2023-04-08T01:07:36;7.30;99.60
6948;DHT22;3513;47.664;9.162;2023-04-08T01:10:16;7.30;99.90
6948;DHT22;3513;47.664;9.162;2023-04-08T01:12:55;7.30;99.90
6948;DHT22;3513;47.664;9.162;2023-04-08T01:15:21;7.40;99.90
6948;DHT22;3513;47.664;9.162;2023-04-08T01:17:52;7.40;99.90
6948;DHT22;3513;47.664;9.162;2023-04-08T01:20:19;8.20;99.90
6948;DHT22;3513;47.664;9.162;2023-04-08T01:27:58;7.10;99.90
6948;DHT22;3513;47.664;9.162;2023-04-08T01:30:25;7.10;99.90
6948;DHT22;3513;47.664;9.162;2023-04-08T01:32:54;7.10;99.90
6948;DHT22;3513;47.664;9.162;2023-04-08T01:35:20;8.80;99.90
6948;DHT22;3513;47.664;9.162;2023-04-08T01:37:47;7.10;99.90
6948;DHT22;3513;47.664;9.162;2023-04-08T01:40:14;7.00;99.90
6948;DHT22;3513;47.664;9.162;2023-04-08T01:42:41;7.90;99.90
6948;DHT22;3513;47.664;9.162;2023-04-08T01:45:08;6.90;99.90
6948;DHT22;3513;47.664;9.162;2023-04-08T01:47:35;6.90;99.90
6948;DHT22;3513;47.664;9.162;2023-04-08T01:50:02;6.90;99.90
6948;DHT22;3513;47.664;9.162;2023-04-08T01:52:28;6.80;99.90
6948;DHT22;3513;47.664;9.162;2023-04-08T01:54:55;6.80;99.90
6948;DHT22;3513;47.664;9.162;2023-04-08T01:57:27;6.70;99.90
6948;DHT22;3513;47.664;9.162;2023-04-08T01:59:58;6.60;99.90
6948;DHT22;3513;47.664;9.162;2023-04-08T02:02:25;6.60;99.90
6948;DHT22;3513;47.664;9.162;2023-04-08T02:04:52;6.60;99.90
6948;DHT22;3513;47.664;9.162;2023-04-08T02:07:18;6.50;99.90
6948;DHT22;3513;47.664;9.162;2023-04-08T02:09:44;6.50;99.90
6948;DHT22;3513;47.664;9.162;2023-04-08T02:12:10;6.50;99.90
6948;DHT22;3513;47.664;9.162;2023-04-08T02:14:36;6.50;99.90
6948;DHT22;3513;47.664;9.162;2023-04-08T02:17:10;7.70;99.90
6948;DHT22;3513;47.664;9.162;2023-04-08T02:19:45;6.50;99.90
6948;DHT22;3513;47.664;9.162;2023-04-08T02:22:18;6.50;99.90
6948;DHT22;3513;47.664;9.162;2023-04-08T02:24:49;7.30;99.90
6948;DHT22;3513;47.664;9.162;2023-04-08T02:27:16;6.70;99.90
6948;DHT22;3513;47.664;9.162;2023-04-08T02:29:43;6.90;99.90
6948;DHT22;3513;47.664;9.162;2023-04-08T02:32:10;6.50;99.90
6948;DHT22;3513;47.664;9.162;2023-04-08T02:34:39;6.50;99.90
6948;DHT22;3513;47.664;9.162;2023-04-08T02:37:04;6.50;99.90
6948;DHT22;3513;47.664;9.162;2023-04-08T02:39:31;6.50;99.90
6948;DHT22;3513;47.664;9.162;2023-04-08T02:41:57;6.50;99.90
6948;DHT22;3513;47.664;9.162;2023-04-08T02:44:24;7.20;99.90
6948;DHT22;3513;47.664;9.162;2023-04-08T02:46:49;8.80;99.90
6948;DHT22;3513;47.664;9.162;2023-04-08T02:49:15;6.60;99.90
6948;DHT22;3513;47.664;9.162;2023-04-08T02:51:40;6.50;99.90
6948;DHT22;3513;47.664;9.162;2023-04-08T02:54:06;6.70;99.90
6948;DHT22;3513;47.664;9.162;2023-04-08T02:56:32;6.60;99.90
6948;DHT22;3513;47.664;9.162;2023-04-08T02:58:57;6.70;99.90
6948;DHT22;3513;47.664;9.162;2023-04-08T03:01:23;6.70;99.90
6948;DHT22;3513;47.664;9.162;2023-04-08T03:03:49;6.70;99.90
6948;DHT22;3513;47.664;9.162;2023-04-08T03:06:14;6.70;99.90
6948;DHT22;3513;47.664;9.162;2023-04-08T03:08:41;6.70;99.90
6948;DHT22;3513;47.664;9.162;2023-04-08T03:11:06;6.70;99.90
6948;DHT22;3513;47.664;9.162;2023-04-08T03:13:32;6.70;99.90
6948;DHT22;3513;47.664;9.162;2023-04-08T03:15:58;6.70;99.90
6948;DHT22;3513;47.664;9.162;2023-04-08T03:18:24;6.70;99.90
6948;DHT22;3513;47.664;9.162;2023-04-08T03:20:49;6.70;99.90
6948;DHT22;3513;47.664;9.162;2023-04-08T03:23:15;7.50;99.90
6948;DHT22;3513;47.664;9.162;2023-04-08T03:25:41;6.70;99.90
6948;DHT22;3513;47.664;9.162;2023-04-08T03:28:06;7.10;99.90
6948;DHT22;3513;47.664;9.162;2023-04-08T03:30:32;6.70;99.90
6948;DHT22;3513;47.664;9.162;2023-04-08T03:32:57;6.70;99.90
6948;DHT22;3513;47.664;9.162;2023-04-08T03:35:23;7.20;99.90
6948;DHT22;3513;47.664;9.162;2023-04-08T03:37:49;6.70;99.90
6948;DHT22;3513;47.664;9.162;2023-04-08T03:40:14;6.70;99.90
6948;DHT22;3513;47.664;9.162;2023-04-08T03:42:40;6.70;99.90
6948;DHT22;3513;47.664;9.162;2023-04-08T03:45:06;6.70;99.90
6948;DHT22;3513;47.664;9.162;2023-04-08T03:47:32;6.70;99.90
6948;DHT22;3513;47.664;9.162;2023-04-08T03:49:58;6.70;99.90
6948;DHT22;3513;47.664;9.162;2023-04-08T03:52:24;6.80;99.90
6948;DHT22;3513;47.664;9.162;2023-04-08T03:54:49;6.80;99.90
6948;DHT22;3513;47.664;9.162;2023-04-08T03:57:15;8.10;99.90
6948;DHT22;3513;47.664;9.162;2023-04-08T03:59:40;6.80;99.90
6948;DHT22;3513;47.664;9.162;2023-04-08T04:02:06;6.80;99.90
6948;DHT22;3513;47.664;9.162;2023-04-08T04:04:32;6.90;99.90
6948;DHT22;3513;47.664;9.162;2023-04-08T04:06:58;6.90;99.90
6948;DHT22;3513;47.664;9.162;2023-04-08T04:09:23;6.80;99.90
6948;DHT22;3513;47.664;9.162;2023-04-08T04:11:49;6.90;99.90
6948;DHT22;3513;47.664;9.162;2023-04-08T04:14:15;6.80;99.90
6948;DHT22;3513;47.664;9.162;2023-04-08T04:16:40;7.60;99.90
6948;DHT22;3513;47.664;9.162;2023-04-08T04:19:06;6.90;99.90
6948;DHT22;3513;47.664;9.162;2023-04-08T04:21:32;6.90;99.90
6948;DHT22;3513;47.664;9.162;2023-04-08T04:23:57;6.90;99.90
6948;DHT22;3513;47.664;9.162;2023-04-08T04:26:23;6.90;99.90
6948;DHT22;3513;47.664;9.162;2023-04-08T04:28:48;6.90;99.90
6948;DHT22;3513;47.664;9.162;2023-04-08T04:31:21;6.90;99.90
6948;DHT22;3513;47.664;9.162;2023-04-08T04:33:47;6.90;99.90
6948;DHT22;3513;47.664;9.162;2023-04-08T04:36:14;6.80;99.90
6948;DHT22;3513;47.664;9.162;2023-04-08T04:38:40;6.90;99.90
6948;DHT22;3513;47.664;9.162;2023-04-08T04:41:07;6.80;99.90
6948;DHT22;3513;47.664;9.162;2023-04-08T04:43:32;8.10;99.90
6948;DHT22;3513;47.664;9.162;2023-04-08T04:45:58;8.70;99.90
6948;DHT22;3513;47.664;9.162;2023-04-08T04:48:25;8.40;99.90
6948;DHT22;3513;47.664;9.162;2023-04-08T04:50:55;8.50;99.90
6948;DHT22;3513;47.664;9.162;2023-04-08T04:53:20;9.50;99.90
6948;DHT22;3513;47.664;9.162;2023-04-08T04:55:46;6.70;99.90
6948;DHT22;3513;47.664;9.162;2023-04-08T04:58:12;6.60;99.90
6948;DHT22;3513;47.664;9.162;2023-04-08T05:00:37;8.00;99.90
6948;DHT22;3513;47.664;9.162;2023-04-08T05:03:03;6.70;99.90
6948;DHT22;3513;47.664;9.162;2023-04-08T05:05:29;8.20;99.90
6948;DHT22;3513;47.664;9.162;2023-04-08T05:07:54;6.70;99.90
6948;DHT22;3513;47.664;9.162;2023-04-08T05:10:20;9.40;99.90
6948;DHT22;3513;47.664;9.162;2023-04-08T05:12:46;6.60;99.90
6948;DHT22;3513;47.664;9.162;2023-04-08T05:15:11;8.80;99.90
6948;DHT22;3513;47.664;9.162;2023-04-08T05:17:37;6.70;99.90
6948;DHT22;3513;47.664;9.162;2023-04-08T05:20:03;6.70;99.90
6948;DHT22;3513;47.664;9.162;2023-04-08T05:22:29;6.60;99.90
6948;DHT22;3513;47.664;9.162;2023-04-08T05:24:55;7.80;99.90
6948;DHT22;3513;47.664;9.162;2023-04-08T05:27:20;8.90;99.90
6948;DHT22;3513;47.664;9.162;2023-04-08T05:29:46;7.20;99.90
6948;DHT22;3513;47.664;9.162;2023-04-08T05:32:12;6.70;99.90
6948;DHT22;3513;47.664;9.162;2023-04-08T05:34:37;6.70;99.90
6948;DHT22;3513;47.664;9.162;2023-04-08T05:37:03;6.70;99.90
6948;DHT22;3513;47.664;9.162;2023-04-08T05:39:29;6.60;99.90
6948;DHT22;3513;47.664;9.162;2023-04-08T05:41:55;6.70;99.90
6948;DHT22;3513;47.664;9.162;2023-04-08T05:44:20;6.70;99.90
6948;DHT22;3513;47.664;9.162;2023-04-08T05:46:46;6.90;99.90
6948;DHT22;3513;47.664;9.162;2023-04-08T05:49:13;6.90;99.90
6948;DHT22;3513;47.664;9.162;2023-04-08T05:51:38;6.90;99.90
6948;DHT22;3513;47.664;9.162;2023-04-08T05:54:04;7.00;99.90
6948;DHT22;3513;47.664;9.162;2023-04-08T05:56:29;9.00;99.90
6948;DHT22;3513;47.664;9.162;2023-04-08T05:58:56;6.90;99.90
6948;DHT22;3513;47.664;9.162;2023-04-08T06:01:22;6.90;99.90
6948;DHT22;3513;47.664;9.162;2023-04-08T06:03:48;7.00;99.90
6948;DHT22;3513;47.664;9.162;2023-04-08T06:06:14;7.00;99.90
6948;DHT22;3513;47.664;9.162;2023-04-08T06:08:39;8.90;99.90
6948;DHT22;3513;47.664;9.162;2023-04-08T06:11:05;7.70;99.90
6948;DHT22;3513;47.664;9.162;2023-04-08T06:13:31;7.00;99.90
6948;DHT22;3513;47.664;9.162;2023-04-08T06:15:57;8.00;99.90
6948;DHT22;3513;47.664;9.162;2023-04-08T06:18:23;7.50;99.90
6948;DHT22;3513;47.664;9.162;2023-04-08T06:20:49;7.20;99.90
6948;DHT22;3513;47.664;9.162;2023-04-08T06:23:15;7.20;99.90
6948;DHT22;3513;47.664;9.162;2023-04-08T06:25:41;7.30;99.90
6948;DHT22;3513;47.664;9.162;2023-04-08T06:28:07;7.90;99.90
6948;DHT22;3513;47.664;9.162;2023-04-08T06:30:32;7.80;99.90
6948;DHT22;3513;47.664;9.162;2023-04-08T06:32:58;7.50;99.90
6948;DHT22;3513;47.664;9.162;2023-04-08T06:35:24;9.30;99.90
6948;DHT22;3513;47.664;9.162;2023-04-08T06:37:50;7.50;99.90
6948;DHT22;3513;47.664;9.162;2023-04-08T06:40:15;7.50;99.90
6948;DHT22;3513;47.664;9.162;2023-04-08T06:42:41;7.50;99.90
6948;DHT22;3513;47.664;9.162;2023-04-08T06:45:09;7.50;99.90
6948;DHT22;3513;47.664;9.162;2023-04-08T06:47:35;7.50;99.90
6948;DHT22;3513;47.664;9.162;2023-04-08T06:50:01;7.50;99.90
6948;DHT22;3513;47.664;9.162;2023-04-08T06:52:26;7.50;99.90
6948;DHT22;3513;47.664;9.162;2023-04-08T06:54:52;7.60;99.90
6948;DHT22;3513;47.664;9.162;2023-04-08T06:57:18;9.10;99.90
6948;DHT22;3513;47.664;9.162;2023-04-08T06:59:43;7.20;99.90
6948;DHT22;3513;47.664;9.162;2023-04-08T07:02:09;9.00;99.90
6948;DHT22;3513;47.664;9.162;2023-04-08T07:04:35;8.90;99.90
6948;DHT22;3513;47.664;9.162;2023-04-08T07:07:01;7.70;99.90
6948;DHT22;3513;47.664;9.162;2023-04-08T07:09:26;7.60;99.90
6948;DHT22;3513;47.664;9.162;2023-04-08T07:11:52;7.70;99.90
6948;DHT22;3513;47.664;9.162;2023-04-08T07:14:18;8.70;99.90
6948;DHT22;3513;47.664;9.162;2023-04-08T07:16:44;7.90;99.90
6948;DHT22;3513;47.664;9.162;2023-04-08T07:19:10;7.80;99.90
6948;DHT22;3513;47.664;9.162;2023-04-08T07:21:36;7.90;99.90
6948;DHT22;3513;47.664;9.162;2023-04-08T07:24:01;8.30;99.90
6948;DHT22;3513;47.664;9.162;2023-04-08T07:26:27;8.10;99.90
6948;DHT22;3513;47.664;9.162;2023-04-08T07:28:53;8.20;99.90
6948;DHT22;3513;47.664;9.162;2023-04-08T07:31:18;8.30;99.90
6948;DHT22;3513;47.664;9.162;2023-04-08T07:33:44;8.10;99.90
6948;DHT22;3513;47.664;9.162;2023-04-08T07:36:11;9.40;99.90
6948;DHT22;3513;47.664;9.162;2023-04-08T07:38:38;9.50;99.90
6948;DHT22;3513;47.664;9.162;2023-04-08T07:41:03;9.80;99.90
6948;DHT22;3513;47.664;9.162;2023-04-08T07:43:30;8.40;99.90
6948;DHT22;3513;47.664;9.162;2023-04-08T07:46:00;8.60;99.90
6948;DHT22;3513;47.664;9.162;2023-04-08T07:48:30;8.60;99.90
6948;DHT22;3513;47.664;9.162;2023-04-08T07:50:56;8.70;99.90
6948;DHT22;3513;47.664;9.162;2023-04-08T07:53:21;8.70;99.90
6948;DHT22;3513;47.664;9.162;2023-04-08T07:55:51;10.50;99.90
6948;DHT22;3513;47.664;9.162;2023-04-08T07:58:16;8.80;99.90
6948;DHT22;3513;47.664;9.162;2023-04-08T08:00:42;8.90;99.90
6948;DHT22;3513;47.664;9.162;2023-04-08T08:03:07;10.20;99.90
6948;DHT22;3513;47.664;9.162;2023-04-08T08:05:34;10.80;99.90
6948;DHT22;3513;47.664;9.162;2023-04-08T08:08:00;10.20;99.90
6948;DHT22;3513;47.664;9.162;2023-04-08T08:10:26;9.00;99.90
6948;DHT22;3513;47.664;9.162;2023-04-08T08:12:52;9.70;99.90
6948;DHT22;3513;47.664;9.162;2023-04-08T08:15:17;10.80;99.90
6948;DHT22;3513;47.664;9.162;2023-04-08T08:17:43;9.20;99.90
6948;DHT22;3513;47.664;9.162;2023-04-08T08:20:09;9.20;99.90
6948;DHT22;3513;47.664;9.162;2023-04-08T08:22:35;9.30;99.90
6948;DHT22;3513;47.664;9.162;2023-04-08T08:25:03;9.40;99.90
6948;DHT22;3513;47.664;9.162;2023-04-08T08:27:29;9.50;99.90
6948;DHT22;3513;47.664;9.162;2023-04-08T08:29:55;9.50;98.90
6948;DHT22;3513;47.664;9.162;2023-04-08T08:32:21;10.90;99.50
6948;DHT22;3513;47.664;9.162;2023-04-08T08:34:47;9.50;98.40
6948;DHT22;3513;47.664;9.162;2023-04-08T08:37:12;10.70;99.00
6948;DHT22;3513;47.664;9.162;2023-04-08T08:39:38;10.70;98.40
6948;DHT22;3513;47.664;9.162;2023-04-08T08:42:04;11.30;98.50
6948;DHT22;3513;47.664;9.162;2023-04-08T08:44:29;9.70;98.30
6948;DHT22;3513;47.664;9.162;2023-04-08T08:46:55;11.00;98.00
6948;DHT22;3513;47.664;9.162;2023-04-08T08:49:21;9.80;97.70
6948;DHT22;3513;47.664;9.162;2023-04-08T08:51:48;9.80;97.50
6948;DHT22;3513;47.664;9.162;2023-04-08T08:54:15;9.80;97.30
6948;DHT22;3513;47.664;9.162;2023-04-08T08:56:41;10.20;97.00
6948;DHT22;3513;47.664;9.162;2023-04-08T08:59:08;9.80;97.50
6948;DHT22;3513;47.664;9.162;2023-04-08T09:01:38;9.80;97.60
6948;DHT22;3513;47.664;9.162;2023-04-08T09:04:13;9.80;97.50
6948;DHT22;3513;47.664;9.162;2023-04-08T09:06:45;9.90;97.50
6948;DHT22;3513;47.664;9.162;2023-04-08T09:09:12;9.90;97.90
6948;DHT22;3513;47.664;9.162;2023-04-08T09:11:43;11.40;98.60
6948;DHT22;3513;47.664;9.162;2023-04-08T09:14:22;11.00;98.70
6948;DHT22;3513;47.664;9.162;2023-04-08T09:16:49;10.00;98.50
6948;DHT22;3513;47.664;9.162;2023-04-08T09:19:15;10.10;98.60
6948;DHT22;3513;47.664;9.162;2023-04-08T09:21:41;10.10;98.60
6948;DHT22;3513;47.664;9.162;2023-04-08T09:24:07;10.20;98.60
6948;DHT22;3513;47.664;9.162;2023-04-08T09:26:34;10.20;98.50
6948;DHT22;3513;47.664;9.162;2023-04-08T09:29:08;11.50;99.30
6948;DHT22;3513;47.664;9.162;2023-04-08T09:31:36;10.10;98.70
6948;DHT22;3513;47.664;9.162;2023-04-08T09:34:12;10.00;98.50
6948;DHT22;3513;47.664;9.162;2023-04-08T09:36:39;9.80;99.20
6948;DHT22;3513;47.664;9.162;2023-04-08T09:39:05;9.70;99.60
6948;DHT22;3513;47.664;9.162;2023-04-08T09:41:36;9.70;99.90
6948;DHT22;3513;47.664;9.162;2023-04-08T09:44:05;9.90;99.90
6948;DHT22;3513;47.664;9.162;2023-04-08T09:46:50;9.70;99.90
6948;DHT22;3513;47.664;9.162;2023-04-08T09:49:37;9.70;99.90
6948;DHT22;3513;47.664;9.162;2023-04-08T09:54:47;9.70;99.90
6948;DHT22;3513;47.664;9.162;2023-04-08T10:00:04;9.80;99.90
6948;DHT22;3513;47.664;9.162;2023-04-08T10:02:40;9.90;99.90
6948;DHT22;3513;47.664;9.162;2023-04-08T10:05:12;11.80;99.90
6948;DHT22;3513;47.664;9.162;2023-04-08T10:07:38;10.70;99.40
6948;DHT22;3513;47.664;9.162;2023-04-08T10:10:06;10.20;99.00
6948;DHT22;3513;47.664;9.162;2023-04-08T10:12:33;10.20;98.80
6948;DHT22;3513;47.664;9.162;2023-04-08T10:17:49;10.50;97.20
6948;DHT22;3513;47.664;9.162;2023-04-08T10:23:06;10.80;97.60
6948;DHT22;3513;47.664;9.162;2023-04-08T10:25:37;11.00;97.40
6948;DHT22;3513;47.664;9.162;2023-04-08T10:30:44;11.40;94.60
6948;DHT22;3513;47.664;9.162;2023-04-08T10:33:21;11.40;94.90
6948;DHT22;3513;47.664;9.162;2023-04-08T10:36:08;11.30;95.30
6948;DHT22;3513;47.664;9.162;2023-04-08T10:38:34;11.30;95.70
6948;DHT22;3513;47.664;9.162;2023-04-08T10:41:00;11.70;94.50
6948;DHT22;3513;47.664;9.162;2023-04-08T10:43:34;11.20;93.60
6948;DHT22;3513;47.664;9.162;2023-04-08T10:46:00;11.20;94.40
6948;DHT22;3513;47.664;9.162;2023-04-08T10:48:26;11.60;94.70
6948;DHT22;3513;47.664;9.162;2023-04-08T10:50:59;11.40;94.30
6948;DHT22;3513;47.664;9.162;2023-04-08T10:53:28;11.40;93.60
6948;DHT22;3513;47.664;9.162;2023-04-08T10:58:53;11.70;93.10
6948;DHT22;3513;47.664;9.162;2023-04-08T11:01:20;11.80;92.70
6948;DHT22;3513;47.664;9.162;2023-04-08T11:03:46;12.20;92.90
6948;DHT22;3513;47.664;9.162;2023-04-08T11:06:12;12.40;92.80
6948;DHT22;3513;47.664;9.162;2023-04-08T11:08:38;12.70;92.00
6948;DHT22;3513;47.664;9.162;2023-04-08T11:11:05;12.90;91.70
6948;DHT22;3513;47.664;9.162;2023-04-08T11:13:45;13.10;91.40
6948;DHT22;3513;47.664;9.162;2023-04-08T11:16:11;13.30;91.00
6948;DHT22;3513;47.664;9.162;2023-04-08T11:18:38;13.50;90.40
6948;DHT22;3513;47.664;9.162;2023-04-08T11:21:08;13.50;88.00
6948;DHT22;3513;47.664;9.162;2023-04-08T11:23:37;13.60;87.70
6948;DHT22;3513;47.664;9.162;2023-04-08T11:26:03;13.70;86.70
6948;DHT22;3513;47.664;9.162;2023-04-08T11:28:29;13.90;88.20
6948;DHT22;3513;47.664;9.162;2023-04-08T11:30:56;13.80;84.10
6948;DHT22;3513;47.664;9.162;2023-04-08T11:33:24;13.80;83.40
6948;DHT22;3513;47.664;9.162;2023-04-08T11:35:51;13.80;82.10
6948;DHT22;3513;47.664;9.162;2023-04-08T11:38:21;13.60;80.50
6948;DHT22;3513;47.664;9.162;2023-04-08T11:40:58;13.50;80.40
6948;DHT22;3513;47.664;9.162;2023-04-08T11:43:24;13.50;82.10
6948;DHT22;3513;47.664;9.162;2023-04-08T11:45:50;13.40;80.50
6948;DHT22;3513;47.664;9.162;2023-04-08T11:48:16;13.50;79.00
6948;DHT22;3513;47.664;9.162;2023-04-08T11:50:44;13.60;81.00
6948;DHT22;3513;47.664;9.162;2023-04-08T11:53:20;13.80;83.00
6948;DHT22;3513;47.664;9.162;2023-04-08T11:55:47;14.00;83.20
6948;DHT22;3513;47.664;9.162;2023-04-08T11:58:13;15.40;84.10
6948;DHT22;3513;47.664;9.162;2023-04-08T12:00:39;13.70;81.20
6948;DHT22;3513;47.664;9.162;2023-04-08T12:03:06;14.70;81.30
6948;DHT22;3513;47.664;9.162;2023-04-08T12:05:31;14.90;79.70
6948;DHT22;3513;47.664;9.162;2023-04-08T12:07:57;16.00;81.80
6948;DHT22;3513;47.664;9.162;2023-04-08T12:10:23;15.00;79.40
6948;DHT22;3513;47.664;9.162;2023-04-08T12:12:51;15.00;78.90
6948;DHT22;3513;47.664;9.162;2023-04-08T12:15:18;14.90;78.70
6948;DHT22;3513;47.664;9.162;2023-04-08T12:17:44;14.50;78.60
6948;DHT22;3513;47.664;9.162;2023-04-08T12:20:10;14.70;78.70
6948;DHT22;3513;47.664;9.162;2023-04-08T12:22:37;14.50;78.60
6948;DHT22;3513;47.664;9.162;2023-04-08T12:25:03;12.90;77.10
6948;DHT22;3513;47.664;9.162;2023-04-08T12:27:29;14.10;79.70
6948;DHT22;3513;47.664;9.162;2023-04-08T12:29:58;13.90;81.70
6948;DHT22;3513;47.664;9.162;2023-04-08T12:32:23;14.20;82.50
6948;DHT22;3513;47.664;9.162;2023-04-08T12:34:50;13.50;82.00
6948;DHT22;3513;47.664;9.162;2023-04-08T12:37:16;13.40;83.00
6948;DHT22;3513;47.664;9.162;2023-04-08T12:39:41;13.20;82.90
6948;DHT22;3513;47.664;9.162;2023-04-08T12:42:10;13.90;83.90
6948;DHT22;3513;47.664;9.162;2023-04-08T12:44:36;12.90;82.90
6948;DHT22;3513;47.664;9.162;2023-04-08T12:47:02;14.30;85.30
6948;DHT22;3513;47.664;9.162;2023-04-08T12:49:27;12.70;85.00
6948;DHT22;3513;47.664;9.162;2023-04-08T12:51:53;13.60;87.20
6948;DHT22;3513;47.664;9.162;2023-04-08T12:54:19;12.60;87.40
6948;DHT22;3513;47.664;9.162;2023-04-08T12:56:45;12.40;87.80
6948;DHT22;3513;47.664;9.162;2023-04-08T12:59:13;12.30;89.00
6948;DHT22;3513;47.664;9.162;2023-04-08T13:01:39;12.20;89.40
6948;DHT22;3513;47.664;9.162;2023-04-08T13:04:04;12.20;90.20
6948;DHT22;3513;47.664;9.162;2023-04-08T13:06:30;12.20;90.60
6948;DHT22;3513;47.664;9.162;2023-04-08T13:08:56;12.20;90.80
6948;DHT22;3513;47.664;9.162;2023-04-08T13:11:22;13.90;92.00
6948;DHT22;3513;47.664;9.162;2023-04-08T13:13:47;12.20;91.30
6948;DHT22;3513;47.664;9.162;2023-04-08T13:16:13;12.20;91.50
6948;DHT22;3513;47.664;9.162;2023-04-08T13:18:40;13.10;92.10
6948;DHT22;3513;47.664;9.162;2023-04-08T13:21:06;12.20;92.00
6948;DHT22;3513;47.664;9.162;2023-04-08T13:23:32;12.10;92.30
6948;DHT22;3513;47.664;9.162;2023-04-08T13:25:58;12.00;93.00
6948;DHT22;3513;47.664;9.162;2023-04-08T13:28:23;11.70;93.70
6948;DHT22;3513;47.664;9.162;2023-04-08T13:30:49;11.40;94.40
6948;DHT22;3513;47.664;9.162;2023-04-08T13:33:15;11.30;95.50
6948;DHT22;3513;47.664;9.162;2023-04-08T13:35:41;11.40;96.30
6948;DHT22;3513;47.664;9.162;2023-04-08T13:38:07;10.70;96.80
6948;DHT22;3513;47.664;9.162;2023-04-08T13:40:33;12.60;98.00
6948;DHT22;3513;47.664;9.162;2023-04-08T13:42:58;10.40;97.20
6948;DHT22;3513;47.664;9.162;2023-04-08T13:45:24;10.20;98.10
6948;DHT22;3513;47.664;9.162;2023-04-08T13:47:50;10.00;98.80
6948;DHT22;3513;47.664;9.162;2023-04-08T13:50:16;9.90;99.90
6948;DHT22;3513;47.664;9.162;2023-04-08T13:52:41;9.90;99.90
6948;DHT22;3513;47.664;9.162;2023-04-08T13:55:07;9.80;99.90
6948;DHT22;3513;47.664;9.162;2023-04-08T13:57:33;10.50;99.90
6948;DHT22;3513;47.664;9.162;2023-04-08T13:59:58;9.80;99.90
6948;DHT22;3513;47.664;9.162;2023-04-08T14:02:24;10.10;99.90
6948;DHT22;3513;47.664;9.162;2023-04-08T14:04:50;9.90;99.90
6948;DHT22;3513;47.664;9.162;2023-04-08T14:07:16;10.00;99.90
6948;DHT22;3513;47.664;9.162;2023-04-08T14:09:43;10.10;99.90
6948;DHT22;3513;47.664;9.162;2023-04-08T14:12:08;10.10;99.50
6948;DHT22;3513;47.664;9.162;2023-04-08T14:14:34;10.50;99.80
6948;DHT22;3513;47.664;9.162;2023-04-08T14:17:00;10.40;99.20
6948;DHT22;3513;47.664;9.162;2023-04-08T14:19:26;10.70;99.50
6948;DHT22;3513;47.664;9.162;2023-04-08T14:21:51;10.50;99.00
6948;DHT22;3513;47.664;9.162;2023-04-08T14:24:17;10.50;99.00
6948;DHT22;3513;47.664;9.162;2023-04-08T14:26:42;12.10;99.70
6948;DHT22;3513;47.664;9.162;2023-04-08T14:29:08;10.80;98.60
6948;DHT22;3513;47.664;9.162;2023-04-08T14:31:34;12.20;99.20
6948;DHT22;3513;47.664;9.162;2023-04-08T14:34:01;11.00;98.60
6948;DHT22;3513;47.664;9.162;2023-04-08T14:36:28;9.70;98.10
6948;DHT22;3513;47.664;9.162;2023-04-08T14:38:55;11.10;97.40
6948;DHT22;3513;47.664;9.162;2023-04-08T14:41:21;12.40;98.00
6948;DHT22;3513;47.664;9.162;2023-04-08T14:43:47;12.60;98.00
6948;DHT22;3513;47.664;9.162;2023-04-08T14:46:13;12.00;97.40
6948;DHT22;3513;47.664;9.162;2023-04-08T14:48:39;11.10;96.90
6948;DHT22;3513;47.664;9.162;2023-04-08T14:51:05;11.10;97.00
6948;DHT22;3513;47.664;9.162;2023-04-08T14:53:53;11.10;97.10
6948;DHT22;3513;47.664;9.162;2023-04-08T14:56:30;11.20;97.10
6948;DHT22;3513;47.664;9.162;2023-04-08T14:58:56;11.30;96.60
6948;DHT22;3513;47.664;9.162;2023-04-08T15:01:22;11.10;96.20
6948;DHT22;3513;47.664;9.162;2023-04-08T15:03:47;11.20;96.00
6948;DHT22;3513;47.664;9.162;2023-04-08T15:06:13;11.10;95.60
6948;DHT22;3513;47.664;9.162;2023-04-08T15:08:42;12.70;96.30
6948;DHT22;3513;47.664;9.162;2023-04-08T15:11:08;11.40;95.80
6948;DHT22;3513;47.664;9.162;2023-04-08T15:13:33;12.40;96.50
6948;DHT22;3513;47.664;9.162;2023-04-08T15:16:02;12.90;96.60
6948;DHT22;3513;47.664;9.162;2023-04-08T15:18:28;11.20;95.50
6948;DHT22;3513;47.664;9.162;2023-04-08T15:21:08;9.70;95.30
6948;DHT22;3513;47.664;9.162;2023-04-08T15:23:34;12.60;95.30
6948;DHT22;3513;47.664;9.162;2023-04-08T15:26:00;11.50;94.80
6948;DHT22;3513;47.664;9.162;2023-04-08T15:28:25;11.40;94.50
6948;DHT22;3513;47.664;9.162;2023-04-08T15:30:51;11.70;94.00
6948;DHT22;3513;47.664;9.162;2023-04-08T15:33:17;11.60;92.80
6948;DHT22;3513;47.664;9.162;2023-04-08T15:35:46;12.90;93.20
6948;DHT22;3513;47.664;9.162;2023-04-08T15:38:12;11.70;91.70
6948;DHT22;3513;47.664;9.162;2023-04-08T15:40:38;11.60;92.20
6948;DHT22;3513;47.664;9.162;2023-04-08T15:43:03;11.30;91.90
6948;DHT22;3513;47.664;9.162;2023-04-08T15:45:29;12.90;91.30
6948;DHT22;3513;47.664;9.162;2023-04-08T15:47:55;10.90;90.40
6948;DHT22;3513;47.664;9.162;2023-04-08T15:50:21;11.50;91.30
6948;DHT22;3513;47.664;9.162;2023-04-08T15:52:47;11.60;91.40
6948;DHT22;3513;47.664;9.162;2023-04-08T15:55:13;10.00;90.90
6948;DHT22;3513;47.664;9.162;2023-04-08T15:57:38;14.00;93.10
6948;DHT22;3513;47.664;9.162;2023-04-08T16:00:08;11.90;91.80
6948;DHT22;3513;47.664;9.162;2023-04-08T16:02:34;11.60;91.80
6948;DHT22;3513;47.664;9.162;2023-04-08T16:05:00;11.60;91.90
6948;DHT22;3513;47.664;9.162;2023-04-08T16:07:26;12.40;92.30
6948;DHT22;3513;47.664;9.162;2023-04-08T16:09:54;12.30;92.30
6948;DHT22;3513;47.664;9.162;2023-04-08T16:12:20;12.10;92.10
6948;DHT22;3513;47.664;9.162;2023-04-08T16:14:46;12.70;92.50
6948;DHT22;3513;47.664;9.162;2023-04-08T16:17:12;11.20;92.00
6948;DHT22;3513;47.664;9.162;2023-04-08T16:19:38;9.80;92.10
6948;DHT22;3513;47.664;9.162;2023-04-08T16:22:03;11.10;92.00
6948;DHT22;3513;47.664;9.162;2023-04-08T16:24:29;11.00;92.10
6948;DHT22;3513;47.664;9.162;2023-04-08T16:26:54;10.90;92.20
6948;DHT22;3513;47.664;9.162;2023-04-08T16:29:20;10.80;92.30
6948;DHT22;3513;47.664;9.162;2023-04-08T16:31:47;10.60;92.60
6948;DHT22;3513;47.664;9.162;2023-04-08T16:34:13;12.90;94.30